Time;durP1;ratioP1;P1;durP2;ratioP2;P2;SDS_P1;SDS_P2;PMS_P1;PMS_P2;Temp;Humidity;BMP_temperature;BMP_pressure;BME280_temperature;BME280_humidity;BME280_pressure;Samples;Min_cycle;Max_cycle;Signal;HPM_P1;HPM_P2
2021/12/16 00:02:10;;;;;;;0.82;0.82;;;;;;;-143.85;100.00;70650.75;5113362;28;20035;-79
2021/12/16 00:09:55;;;;;;;2.13;2.03;;;;;;;-143.85;100.00;70650.75;5112833;28;19907;-77
2021/12/16 00:29:30;;;;;;;;;;;;;;;-143.85;100.00;70650.75;5113235;28;20038;-77
2021/12/16 00:32:20;;;;;;;;;;;;;;;-143.85;100.00;70650.75;5113265;28;19918;-77
2021/12/16 00:34:35;;;;;;;1.95;1.85;;;;;;;-143.85;100.00;70650.75;5110716;28;20010;-77
2021/12/16 00:37:01;;;;;;;1.55;1.48;;;;;;;-143.85;100.00;70650.75;5094484;28;20118;-77
2021/12/16 00:39:31;;;;;;;3.50;2.88;;;;;;;-143.85;100.00;70650.75;5094399;28;20024;-77
2021/12/16 00:42:08;;;;;;;0.68;0.68;;;;;;;-143.85;100.00;70650.75;5094773;28;20043;-77
2021/12/16 00:49:48;;;;;;;1.67;1.58;;;;;;;-143.85;100.00;70650.75;5112907;28;20031;-78
2021/12/16 00:55:21;;;;;;;3.70;3.40;;;;;;;-143.85;100.00;70650.75;5112533;28;20035;-78
2021/12/16 00:57:50;;;;;;;1.92;1.83;;;;;;;-143.85;100.00;70650.75;5094828;28;20035;-78
2021/12/16 01:00:16;;;;;;;3.28;3.08;;;;;;;-143.85;100.00;70650.75;5094820;28;20028;-77
2021/12/16 01:02:57;;;;;;;0.90;0.90;;;;;;;-143.85;100.00;70650.75;5093919;28;20031;-77
2021/12/16 01:05:54;;;;;;;1.40;1.38;;;;;;;-143.85;100.00;70650.75;5112803;28;20549;-78
2021/12/16 01:35:49;;;;;;;0.52;0.52;;;;;;;-143.85;100.00;70650.75;5115931;28;20038;-78
2021/12/16 01:51:55;;;;;;;0.88;0.88;;;;;;;-143.85;100.00;70650.75;5115749;28;20038;-78
2021/12/16 01:57:18;;;;;;;3.05;2.05;;;;;;;-143.85;100.00;70650.75;5115609;28;20520;-78
2021/12/16 01:59:47;;;;;;;0.85;0.85;;;;;;;-143.85;100.00;70650.75;5097941;28;20492;-78
2021/12/16 02:02:33;;;;;;;1.23;1.15;;;;;;;-143.85;100.00;70650.75;5114981;28;20027;-77
2021/12/16 02:07:55;;;;;;;0.52;0.52;;;;;;;-143.85;100.00;70650.75;5115356;28;20530;-78
2021/12/16 02:10:25;;;;;;;1.65;1.30;;;;;;;-143.85;100.00;70650.75;5114920;28;20024;-78
2021/12/16 02:34:22;;;;;;;1.40;1.30;;;;;;;-143.85;100.00;70650.75;5114664;28;20055;-78
2021/12/16 02:36:47;;;;;;;2.58;1.95;;;;;;;-143.85;100.00;70650.75;5096919;28;20391;-78
2021/12/16 02:39:39;;;;;;;1.52;1.45;;;;;;;-143.85;100.00;70650.75;5096257;28;20027;-77
2021/12/16 02:42:13;;;;;;;0.55;0.55;;;;;;;-143.85;100.00;70650.75;5090895;28;20086;-77
2021/12/16 02:48:28;;;;;;;1.75;1.63;;;;;;;-143.85;100.00;70650.75;5114990;28;20477;-77
2021/12/16 02:50:10;;;;;;;0.40;0.40;;;;;;;-143.85;100.00;70650.75;5115011;28;20080;-78
2021/12/16 02:52:36;;;;;;;3.13;2.33;;;;;;;-143.85;100.00;70650.75;5095990;28;20031;-77
2021/12/16 02:55:03;;;;;;;1.13;1.13;;;;;;;-143.85;100.00;70650.75;5095816;28;20028;-77
2021/12/16 02:57:28;;;;;;;2.75;2.55;;;;;;;-143.85;100.00;70650.75;5095857;28;20506;-78
2021/12/16 02:59:55;;;;;;;1.65;1.55;;;;;;;-143.85;100.00;70650.75;5095440;28;20032;-77
2021/12/16 03:02:24;;;;;;;1.58;1.48;;;;;;;-143.85;100.00;70650.75;5096648;28;20096;-77
2021/12/16 03:04:52;;;;;;;0.75;0.75;;;;;;;-143.85;100.00;70650.75;5113995;28;20465;-77
2021/12/16 03:07:19;;;;;;;0.38;0.38;;;;;;;-143.85;100.00;70650.75;5095728;28;20024;-77
2021/12/16 03:20:47;;;;;;;0.30;0.30;;;;;;;-143.85;100.00;70650.75;5113501;28;20019;-78
2021/12/16 03:29:03;;;;;;;1.48;1.45;;;;;;;-143.85;100.00;70650.75;5113741;28;20024;-80
2021/12/16 03:31:42;;;;;;;0.40;0.40;;;;;;;-143.85;100.00;70650.75;5113560;28;20067;-77
2021/12/16 03:37:01;;;;;;;2.50;1.52;;;;;;;-143.85;100.00;70650.75;5113433;28;20127;-78
2021/12/16 03:39:32;;;;;;;0.32;0.32;;;;;;;-143.85;100.00;70650.75;5095528;28;20379;-77
2021/12/16 03:41:58;;;;;;;0.40;0.40;;;;;;;-143.85;100.00;70650.75;5095084;28;20054;-78
2021/12/16 03:44:37;;;;;;;1.20;1.15;;;;;;;-143.85;100.00;70650.75;5095365;28;20034;-77
2021/12/16 03:47:03;;;;;;;1.08;1.08;;;;;;;-143.85;100.00;70650.75;5095314;28;20027;-77
2021/12/16 03:49:30;;;;;;;1.13;1.13;;;;;;;-143.85;100.00;70650.75;5094909;28;20028;-77
2021/12/16 03:52:06;;;;;;;0.50;0.50;;;;;;;-143.85;100.00;70650.75;5094907;28;20077;-77
2021/12/16 03:54:38;;;;;;;3.78;3.35;;;;;;;-143.85;100.00;70650.75;5095096;28;20091;-78
2021/12/16 03:57:06;;;;;;;1.35;1.25;;;;;;;-143.85;100.00;70650.75;5113052;28;20030;-77
2021/12/16 03:59:34;;;;;;;0.65;0.65;;;;;;;-143.85;100.00;70650.75;5094801;28;20046;-77
2021/12/16 04:02:04;;;;;;;1.45;1.45;;;;;;;-143.85;100.00;70650.75;5094821;28;20028;-77
2021/12/16 04:04:30;;;;;;;0.20;0.20;;;;;;;-143.85;100.00;70650.75;5095387;28;20081;-77
2021/12/16 04:06:57;;;;;;;0.70;0.70;;;;;;;-143.85;100.00;70650.75;5094994;28;20034;-78
2021/12/16 04:09:22;;;;;;;0.85;0.85;;;;;;;-143.85;100.00;70650.75;5094689;28;20020;-78
2021/12/16 04:11:57;;;;;;;1.77;1.67;;;;;;;-143.85;100.00;70650.75;5094692;28;20535;-77
2021/12/16 04:14:23;;;;;;;0.77;0.77;;;;;;;-143.85;100.00;70650.75;5095025;28;20441;-78
2021/12/16 04:16:53;;;;;;;1.20;1.20;;;;;;;-143.85;100.00;70650.75;5094652;28;20101;-77
2021/12/16 04:19:25;;;;;;;0.65;0.65;;;;;;;-143.85;100.00;70650.75;5094639;28;20114;-77
2021/12/16 04:21:56;;;;;;;2.97;2.70;;;;;;;-143.85;100.00;70650.75;5113099;28;20024;-77
2021/12/16 04:24:23;;;;;;;0.88;0.88;;;;;;;-143.85;100.00;70650.75;5094609;28;20035;-81
2021/12/16 04:26:51;;;;;;;1.08;1.08;;;;;;;-143.85;100.00;70650.75;5094531;28;20062;-78
2021/12/16 04:29:17;;;;;;;0.30;0.30;;;;;;;-143.85;100.00;70650.75;5094474;28;20024;-78
2021/12/16 04:31:44;;;;;;;1.17;1.13;;;;;;;-143.85;100.00;70650.75;5094890;28;20036;-78
2021/12/16 04:34:10;;;;;;;0.57;0.57;;;;;;;-143.85;100.00;70650.75;5094155;28;20035;-77
2021/12/16 04:36:35;;;;;;;1.73;1.63;;;;;;;-143.85;100.00;70650.75;5095199;28;20027;-77
2021/12/16 04:39:06;;;;;;;1.15;1.05;;;;;;;-143.85;100.00;70650.75;5094498;28;20031;-79
2021/12/16 04:41:32;;;;;;;1.15;1.15;;;;;;;-143.85;100.00;70650.75;5113278;28;20023;-78
2021/12/16 04:43:58;;;;;;;0.90;0.73;;;;;;;-143.85;100.00;70650.75;5094757;28;20047;-79
2021/12/16 04:46:27;;;;;;;3.00;1.95;;;;;;;-143.85;100.00;70650.75;5094114;28;20131;-78
2021/12/16 04:48:55;;;;;;;0.68;0.68;;;;;;;-143.85;100.00;70650.75;5094972;28;20032;-78
2021/12/16 04:51:24;;;;;;;0.73;0.73;;;;;;;-143.85;100.00;70650.75;5113123;28;20027;-77
2021/12/16 04:53:50;;;;;;;0.88;0.88;;;;;;;-143.85;100.00;70650.75;5098338;28;20019;-78
2021/12/16 04:56:16;;;;;;;0.68;0.68;;;;;;;-143.85;100.00;70650.75;5098223;28;20031;-78
2021/12/16 04:58:46;;;;;;;2.97;2.75;;;;;;;-143.85;100.00;70650.75;5098419;28;20027;-78
2021/12/16 05:01:12;;;;;;;0.50;0.50;;;;;;;-143.85;100.00;70650.75;5098345;28;20063;-77
2021/12/16 05:03:37;;;;;;;2.72;1.95;;;;;;;-143.85;100.00;70650.75;5098132;28;20395;-77
2021/12/16 05:06:05;;;;;;;1.02;1.02;;;;;;;-143.85;100.00;70650.75;5098330;28;20024;-78
2021/12/16 05:08:31;;;;;;;0.90;0.90;;;;;;;-143.85;100.00;70650.75;5098050;28;20544;-79
2021/12/16 05:10:58;;;;;;;1.08;1.08;;;;;;;-143.85;100.00;70650.75;5098219;28;20023;-78
2021/12/16 05:13:26;;;;;;;1.20;1.20;;;;;;;-143.85;100.00;70650.75;5116349;28;20492;-78
2021/12/16 05:15:54;;;;;;;0.28;0.28;;;;;;;-143.85;100.00;70650.75;5115787;28;20475;-77
2021/12/16 05:18:25;;;;;;;;;;;;;;;-143.85;100.00;70650.75;5098586;28;20110;-78
2021/12/16 05:20:51;;;;;;;0.50;0.50;;;;;;;-143.85;100.00;70650.75;5097859;28;19908;-77
2021/12/16 05:28:45;;;;;;;0.65;0.65;;;;;;;-143.85;100.00;70650.75;5115950;28;20475;-77
2021/12/16 05:31:12;;;;;;;0.98;0.98;;;;;;;-143.85;100.00;70650.75;5097747;28;20490;-78
2021/12/16 05:33:38;;;;;;;0.57;0.57;;;;;;;-143.85;100.00;70650.75;5097961;28;20032;-78
2021/12/16 05:36:04;;;;;;;1.08;1.08;;;;;;;-143.85;100.00;70650.75;5097469;28;20055;-79
2021/12/16 05:38:30;;;;;;;0.80;0.80;;;;;;;-143.85;100.00;70650.75;5098454;28;20031;-77
2021/12/16 05:40:57;;;;;;;0.30;0.30;;;;;;;-143.85;100.00;70650.75;5097483;28;20027;-78
2021/12/16 05:43:26;;;;;;;1.23;1.03;;;;;;;-143.85;100.00;70650.75;5097384;28;20071;-77
2021/12/16 05:45:54;;;;;;;3.10;2.90;;;;;;;-143.85;100.00;70650.75;5097894;28;20028;-78
2021/12/16 05:48:23;;;;;;;0.45;0.45;;;;;;;-143.85;100.00;70650.75;5097351;28;20023;-78
2021/12/16 05:50:50;;;;;;;;;;;;;;;-143.85;100.00;70650.75;5097566;28;20023;-77
2021/12/16 05:53:17;;;;;;;0.30;0.30;;;;;;;-143.85;100.00;70650.75;5097227;28;19915;-77
2021/12/16 05:55:42;;;;;;;0.40;0.40;;;;;;;-143.85;100.00;70650.75;5097152;28;20482;-77
2021/12/16 05:58:09;;;;;;;0.50;0.50;;;;;;;-143.85;100.00;70650.75;5097659;28;20115;-79
2021/12/16 06:00:41;;;;;;;5.28;2.83;;;;;;;-143.85;100.00;70650.75;5115303;28;20027;-78
2021/12/16 06:03:07;;;;;;;0.57;0.57;;;;;;;-143.85;100.00;70650.75;5097602;28;20027;-78
2021/12/16 06:05:32;;;;;;;1.10;1.02;;;;;;;-143.85;100.00;70650.75;5096940;28;20024;-78
2021/12/16 06:07:58;;;;;;;0.63;0.63;;;;;;;-143.85;100.00;70650.75;5097295;28;20035;-79
2021/12/16 06:13:08;;;;;;;0.40;0.40;;;;;;;-143.85;100.00;70650.75;5115467;28;20034;-78
2021/12/16 06:26:33;;;;;;;0.73;0.65;;;;;;;-143.85;100.00;70650.75;5115002;28;20430;-78
2021/12/16 06:29:00;;;;;;;1.55;1.27;;;;;;;-143.85;100.00;70650.75;5114802;28;20024;-80
2021/12/16 06:31:50;;;;;;;1.10;0.90;;;;;;;-143.85;100.00;70650.75;5096207;28;20023;-80
2021/12/16 06:34:16;;;;;;;0.35;0.35;;;;;;;-143.85;100.00;70650.75;5097026;28;20035;-82
2021/12/16 06:36:42;;;;;;;1.17;1.17;;;;;;;-143.85;100.00;70650.75;5104843;28;20028;-81
2021/12/16 06:39:07;;;;;;;1.63;1.52;;;;;;;-143.85;100.00;70650.75;5096070;28;20023;-78
2021/12/16 06:41:37;;;;;;;0.45;0.45;;;;;;;-143.85;100.00;70650.75;5104829;28;20032;-78
2021/12/16 06:44:11;;;;;;;0.73;0.73;;;;;;;-143.85;100.00;70650.75;5096317;28;20052;-79
2021/12/16 06:46:39;;;;;;;5.93;3.78;;;;;;;-143.85;100.00;70650.75;5096463;28;20032;-77
2021/12/16 06:49:06;;;;;;;0.82;0.82;;;;;;;-143.85;100.00;70650.75;5096130;28;20039;-79
2021/12/16 06:51:46;;;;;;;1.17;1.17;;;;;;;-143.85;100.00;70650.75;5125103;27;20499;-78
2021/12/16 06:54:21;;;;;;;1.92;1.80;;;;;;;-143.85;100.00;70650.75;5116504;27;20463;-77
2021/12/16 06:56:55;;;;;;;0.75;0.75;;;;;;;-143.85;100.00;70650.75;5116353;27;20080;-77
2021/12/16 06:59:25;;;;;;;0.70;0.70;;;;;;;-143.85;100.00;70650.75;5116923;27;20023;-77
2021/12/16 07:02:41;;;;;;;0.50;0.50;;;;;;;-143.85;100.00;70650.75;5116364;27;20119;-77
2021/12/16 07:04:45;;;;;;;0.82;0.82;;;;;;;-143.85;100.00;70650.75;5131628;27;20578;-77
2021/12/16 07:07:13;;;;;;;0.57;0.57;;;;;;;-143.85;100.00;70650.75;5117478;27;20047;-76
2021/12/16 07:09:39;;;;;;;1.40;1.38;;;;;;;-143.85;100.00;70650.75;5116022;27;20033;-77
2021/12/16 07:12:08;;;;;;;0.20;0.20;;;;;;;-143.85;100.00;70650.75;5116662;27;20575;-79
2021/12/16 07:14:39;;;;;;;0.30;0.30;;;;;;;-143.85;100.00;70650.75;5116065;27;20038;-75
2021/12/16 07:17:15;;;;;;;1.67;1.23;;;;;;;-143.85;100.00;70650.75;5116560;27;20035;-78
2021/12/16 07:19:43;;;;;;;2.17;1.15;;;;;;;-143.85;100.00;70650.75;5116751;27;20483;-75
2021/12/16 07:22:18;;;;;;;1.35;1.33;;;;;;;-143.85;100.00;70650.75;5116808;27;20084;-77
2021/12/16 07:24:44;;;;;;;1.27;1.27;;;;;;;-143.85;100.00;70650.75;5116515;27;20110;-77
2021/12/16 07:27:09;;;;;;;0.68;0.68;;;;;;;-143.85;100.00;70650.75;5116510;27;20058;-77
2021/12/16 07:29:35;;;;;;;1.67;1.58;;;;;;;-143.85;100.00;70650.75;5135060;27;20110;-77
2021/12/16 07:32:01;;;;;;;1.13;0.95;;;;;;;-143.85;100.00;70650.75;5116378;27;20019;-76
2021/12/16 07:34:27;;;;;;;0.88;0.88;;;;;;;-143.85;100.00;70650.75;5116246;27;20083;-77
2021/12/16 07:36:53;;;;;;;1.77;1.67;;;;;;;-143.85;100.00;70650.75;5116463;27;20027;-76
2021/12/16 07:39:28;;;;;;;7.82;2.60;;;;;;;-143.85;100.00;70650.75;5116176;27;20459;-74
2021/12/16 07:41:55;;;;;;;0.32;0.32;;;;;;;-143.85;100.00;70650.75;5116019;28;20133;-78
2021/12/16 07:44:21;;;;;;;0.60;0.60;;;;;;;-143.85;100.00;70650.75;5115700;27;20019;-76
2021/12/16 07:46:48;;;;;;;2.25;2.08;;;;;;;-143.85;100.00;70650.75;5115948;27;20027;-76
2021/12/16 07:49:19;;;;;;;1.52;1.05;;;;;;;-143.85;100.00;70650.75;5116513;27;20492;-76
2021/12/16 07:51:45;;;;;;;0.70;0.70;;;;;;;-143.85;100.00;70650.75;5115762;27;20453;-75
2021/12/16 07:54:13;;;;;;;7.13;1.33;;;;;;;-143.85;100.00;70650.75;5115026;27;20135;-78
2021/12/16 07:56:39;;;;;;;1.55;1.45;;;;;;;-143.85;100.00;70650.75;5115300;27;20429;-75
2021/12/16 07:59:10;;;;;;;1.75;1.65;;;;;;;-143.85;100.00;70650.75;5115373;27;20123;-77
2021/12/16 08:01:37;;;;;;;1.20;1.10;;;;;;;-143.85;100.00;70650.75;5133515;27;20023;-79
2021/12/16 08:04:03;;;;;;;1.30;1.27;;;;;;;-143.85;100.00;70650.75;5115285;27;20084;-79
2021/12/16 08:06:31;;;;;;;1.77;1.20;;;;;;;-143.85;100.00;70650.75;5115184;27;20114;-78
2021/12/16 08:08:59;;;;;;;;;;;;;;;-143.85;100.00;70650.75;5116269;28;20026;-75
2021/12/16 08:11:27;;;;;;;0.80;0.70;;;;;;;-143.85;100.00;70650.75;5115269;27;19911;-77
2021/12/16 08:13:54;;;;;;;1.27;1.27;;;;;;;-143.85;100.00;70650.75;5115614;27;20482;-77
2021/12/16 08:16:22;;;;;;;1.90;1.80;;;;;;;-143.85;100.00;70650.75;5115046;27;20064;-78
2021/12/16 08:18:49;;;;;;;3.78;1.75;;;;;;;-143.85;100.00;70650.75;5115096;28;20039;-79
2021/12/16 08:21:15;;;;;;;1.88;1.75;;;;;;;-143.85;100.00;70650.75;5114754;28;20121;-76
2021/12/16 08:23:41;;;;;;;0.82;0.82;;;;;;;-143.85;100.00;70650.75;5115624;28;20054;-78
2021/12/16 08:26:06;;;;;;;0.93;0.93;;;;;;;-143.85;100.00;70650.75;5114982;27;20542;-78
2021/12/16 08:28:33;;;;;;;2.28;1.25;;;;;;;-143.85;100.00;70650.75;5119506;27;20494;-79
2021/12/16 08:30:58;;;;;;;3.67;2.83;;;;;;;-143.85;100.00;70650.75;5119491;27;20027;-78
2021/12/16 08:33:24;;;;;;;2.58;1.60;;;;;;;-143.85;100.00;70650.75;5119630;27;20301;-79
2021/12/16 08:35:52;;;;;;;2.13;1.98;;;;;;;-143.85;100.00;70650.75;5119011;27;20023;-79
2021/12/16 08:38:21;;;;;;;2.63;2.47;;;;;;;-143.85;100.00;70650.75;5119043;27;20027;-77
2021/12/16 08:40:50;;;;;;;7.45;3.35;;;;;;;-143.85;100.00;70650.75;5119140;27;20031;-76
2021/12/16 08:43:16;;;;;;;1.67;1.67;;;;;;;-143.85;100.00;70650.75;5118785;27;20125;-79
2021/12/16 08:45:42;;;;;;;1.50;1.50;;;;;;;-143.85;100.00;70650.75;5119774;27;20110;-77
2021/12/16 08:48:09;;;;;;;7.03;1.45;;;;;;;-143.85;100.00;70650.75;5119006;27;20606;-76
2021/12/16 08:50:38;;;;;;;1.25;1.17;;;;;;;-143.85;100.00;70650.75;5118892;27;20054;-76
2021/12/16 08:53:06;;;;;;;1.60;1.55;;;;;;;-143.85;100.00;70650.75;5118710;27;20033;-80
2021/12/16 08:55:33;;;;;;;0.30;0.30;;;;;;;-143.85;100.00;70650.75;5118764;27;20027;-78
2021/12/16 08:58:00;;;;;;;2.55;2.35;;;;;;;-143.85;100.00;70650.75;5119124;27;20061;-81
2021/12/16 09:00:29;;;;;;;2.80;1.25;;;;;;;-143.85;100.00;70650.75;5118596;27;20052;-79
2021/12/16 09:02:55;;;;;;;4.60;2.88;;;;;;;-143.85;100.00;70650.75;5118834;27;20054;-79
2021/12/16 09:05:22;;;;;;;1.60;1.50;;;;;;;-143.85;100.00;70650.75;5118493;27;20031;-79
2021/12/16 09:07:48;;;;;;;2.15;1.05;;;;;;;-143.85;100.00;70650.75;5118190;27;20088;-77
2021/12/16 09:10:31;;;;;;;0.52;0.52;;;;;;;-143.85;100.00;70650.75;5118483;27;20029;-78
2021/12/16 09:13:02;;;;;;;1.20;0.88;;;;;;;-143.85;100.00;70650.75;5119329;27;20092;-78
2021/12/16 09:15:32;;;;;;;2.50;0.75;;;;;;;-143.85;100.00;70650.75;5118586;27;20397;-80
2021/12/16 09:17:58;;;;;;;0.85;0.85;;;;;;;-143.85;100.00;70650.75;5118179;27;20055;-77
2021/12/16 09:20:24;;;;;;;1.00;0.98;;;;;;;-143.85;100.00;70650.75;5118004;27;20391;-78
2021/12/16 09:22:49;;;;;;;0.60;0.60;;;;;;;-143.85;100.00;70650.75;5118246;27;20031;-78
2021/12/16 09:25:16;;;;;;;0.95;0.95;;;;;;;-143.85;100.00;70650.75;5118086;27;20038;-78
2021/12/16 09:27:42;;;;;;;0.20;0.20;;;;;;;-143.85;100.00;70650.75;5118129;27;20027;-78
2021/12/16 09:30:11;;;;;;;0.68;0.68;;;;;;;-143.85;100.00;70650.75;5117961;27;20023;-79
2021/12/16 09:32:38;;;;;;;0.95;0.95;;;;;;;-143.85;100.00;70650.75;5118417;27;20027;-78
2021/12/16 09:35:05;;;;;;;0.30;0.30;;;;;;;-143.85;100.00;70650.75;5117881;27;20152;-78
2021/12/16 09:37:31;;;;;;;3.97;1.20;;;;;;;-143.85;100.00;70650.75;5117640;27;20061;-78
2021/12/16 09:39:57;;;;;;;1.02;0.85;;;;;;;-143.85;100.00;70650.75;5117861;27;20501;-78
2021/12/16 09:42:25;;;;;;;0.63;0.63;;;;;;;-143.85;100.00;70650.75;5109585;28;20110;-78
2021/12/16 09:44:53;;;;;;;0.57;0.57;;;;;;;-143.85;100.00;70650.75;5093989;28;20024;-77
2021/12/16 09:47:21;;;;;;;0.68;0.68;;;;;;;-143.85;100.00;70650.75;5093901;28;20034;-77
2021/12/16 09:49:48;;;;;;;0.63;0.63;;;;;;;-143.85;100.00;70650.75;5094211;28;20028;-79
2021/12/16 09:52:14;;;;;;;0.98;0.95;;;;;;;-143.85;100.00;70650.75;5094134;28;20553;-78
2021/12/16 09:54:43;;;;;;;0.95;0.95;;;;;;;-143.85;100.00;70650.75;5093697;28;20028;-78
2021/12/16 09:57:10;;;;;;;0.20;0.20;;;;;;;-143.85;100.00;70650.75;5093782;28;20475;-79
2021/12/16 09:59:35;;;;;;;1.15;1.15;;;;;;;-143.85;100.00;70650.75;5093793;28;20069;-79
2021/12/16 10:02:09;;;;;;;0.65;0.65;;;;;;;-143.85;100.00;70650.75;5093627;28;20028;-78
2021/12/16 10:04:36;;;;;;;0.57;0.57;;;;;;;-143.85;100.00;70650.75;5093826;28;20043;-78
2021/12/16 10:07:11;;;;;;;1.35;1.33;;;;;;;-143.85;100.00;70650.75;5093825;28;20035;-79
2021/12/16 10:09:37;;;;;;;0.85;0.85;;;;;;;-143.85;100.00;70650.75;5093671;28;20115;-77
2021/12/16 10:12:10;;;;;;;1.67;1.58;;;;;;;-143.85;100.00;70650.75;5093980;28;20031;-76
2021/12/16 10:17:23;;;;;;;0.20;0.20;;;;;;;-143.85;100.00;70650.75;5094667;28;20064;-77
2021/12/16 10:19:49;;;;;;;0.38;0.38;;;;;;;-143.85;100.00;70650.75;5093244;28;20085;-78
2021/12/16 10:22:21;;;;;;;1.65;1.55;;;;;;;-143.85;100.00;70650.75;5093156;28;20027;-78
2021/12/16 10:24:48;;;;;;;1.00;0.95;;;;;;;-143.85;100.00;70650.75;5093210;28;20099;-79
2021/12/16 10:27:17;;;;;;;0.28;0.28;;;;;;;-143.85;100.00;70650.75;5093327;28;20044;-79
2021/12/16 10:29:54;;;;;;;0.20;0.20;;;;;;;-143.85;100.00;70650.75;5093061;28;20028;-77
2021/12/16 10:32:43;;;;;;;0.30;0.30;;;;;;;-143.85;100.00;70650.75;5093113;28;20110;-76
2021/12/16 10:35:26;;;;;;;0.68;0.68;;;;;;;-143.85;100.00;70650.75;5092784;28;20024;-76
2021/12/16 10:37:55;;;;;;;0.30;0.30;;;;;;;-143.85;100.00;70650.75;5093092;28;20480;-77
2021/12/16 10:40:36;;;;;;;1.33;1.33;;;;;;;-143.85;100.00;70650.75;5093092;28;20119;-76
2021/12/16 10:43:09;;;;;;;0.63;0.50;;;;;;;-143.85;100.00;70650.75;5092745;28;20075;-74
2021/12/16 10:45:43;;;;;;;2.42;2.28;;;;;;;-143.85;100.00;70650.75;5093262;28;20571;-79
2021/12/16 10:48:11;;;;;;;0.30;0.30;;;;;;;-143.85;100.00;70650.75;5094555;28;20031;-76
2021/12/16 10:50:47;;;;;;;2.17;2.08;;;;;;;-143.85;100.00;70650.75;5092022;28;20031;-75
2021/12/16 10:53:13;;;;;;;0.30;0.30;;;;;;;-143.85;100.00;70650.75;5093491;28;20040;-78
2021/12/16 10:55:59;;;;;;;0.25;0.25;;;;;;;-143.85;100.00;70650.75;5093313;28;20024;-78
2021/12/16 10:58:53;;;;;;;0.82;0.75;;;;;;;-143.85;100.00;70650.75;5092588;28;20032;-75
2021/12/16 11:01:49;;;;;;;1.30;1.27;;;;;;;-143.85;100.00;70650.75;5093474;28;20024;-76
2021/12/16 11:04:40;;;;;;;0.98;0.98;;;;;;;-143.85;100.00;70650.75;5092654;28;20105;-76
2021/12/16 11:07:06;;;;;;;0.40;0.40;;;;;;;-143.85;100.00;70650.75;5078752;28;20124;-77
2021/12/16 11:09:33;;;;;;;0.20;0.20;;;;;;;-143.85;100.00;70650.75;5093731;28;20063;-78
2021/12/16 11:12:23;;;;;;;0.95;0.43;;;;;;;-143.85;100.00;70650.75;5092842;28;20016;-78
2021/12/16 11:14:53;;;;;;;0.20;0.20;;;;;;;-143.85;100.00;70650.75;5092288;28;20071;-77
2021/12/16 11:17:20;;;;;;;0.45;0.45;;;;;;;-143.85;100.00;70650.75;5092193;28;20031;-78
2021/12/16 11:19:52;;;;;;;0.55;0.55;;;;;;;-143.85;100.00;70650.75;5091808;28;20031;-78
2021/12/16 11:22:21;;;;;;;0.30;0.30;;;;;;;-143.85;100.00;70650.75;5092346;28;20031;-78
2021/12/16 11:24:47;;;;;;;1.52;1.08;;;;;;;-143.85;100.00;70650.75;5092249;28;20040;-73
2021/12/16 11:27:47;;;;;;;0.30;0.30;;;;;;;-143.85;100.00;70650.75;5091814;28;20023;-74
2021/12/16 11:30:21;;;;;;;0.43;0.43;;;;;;;-143.85;100.00;70650.75;5092992;28;20091;-77
2021/12/16 11:32:50;;;;;;;0.43;0.43;;;;;;;-143.85;100.00;70650.75;5092639;28;20027;-80
2021/12/16 11:35:51;;;;;;;0.20;0.20;;;;;;;-143.85;100.00;70650.75;5094220;28;20036;-77
2021/12/16 11:38:45;;;;;;;0.60;0.60;;;;;;;-143.85;100.00;70650.75;5092535;28;20028;-78
2021/12/16 11:41:17;;;;;;;0.50;0.50;;;;;;;-143.85;100.00;70650.75;5092516;28;20028;-76
2021/12/16 11:43:55;;;;;;;0.20;0.20;;;;;;;-143.85;100.00;70650.75;5092110;28;20098;-77
2021/12/16 11:46:23;;;;;;;0.30;0.30;;;;;;;-143.85;100.00;70650.75;5092958;28;20115;-75
2021/12/16 11:48:53;;;;;;;0.30;0.30;;;;;;;-143.85;100.00;70650.75;5092261;28;20058;-74
2021/12/16 11:51:34;;;;;;;;;;;;;;;-143.85;100.00;70650.75;5092824;28;20488;-74
2021/12/16 11:54:04;;;;;;;0.30;0.30;;;;;;;-143.85;100.00;70650.75;5091764;28;19920;-75
2021/12/16 11:56:37;;;;;;;0.57;0.57;;;;;;;-143.85;100.00;70650.75;5092068;28;20115;-76
2021/12/16 11:59:04;;;;;;;0.30;0.28;;;;;;;-143.85;100.00;70650.75;5093198;28;20024;-78
2021/12/16 12:01:30;;;;;;;0.40;0.40;;;;;;;-143.85;100.00;70650.75;5092114;28;20050;-74
2021/12/16 12:04:06;;;;;;;0.40;0.40;;;;;;;-143.85;100.00;70650.75;5092038;28;20769;-74
2021/12/16 12:06:32;;;;;;;0.38;0.38;;;;;;;-143.85;100.00;70650.75;5091936;28;20031;-74
2021/12/16 12:09:00;;;;;;;6.15;1.40;;;;;;;-143.85;100.00;70650.75;5093352;28;20423;-76
2021/12/16 12:11:32;;;;;;;0.57;0.57;;;;;;;-143.85;100.00;70650.75;5091760;28;20124;-78
2021/12/16 12:14:06;;;;;;;1.55;0.98;;;;;;;-143.85;100.00;70650.75;5092173;28;20085;-75
2021/12/16 12:16:36;;;;;;;0.47;0.47;;;;;;;-143.85;100.00;70650.75;5092070;28;20054;-73
2021/12/16 12:19:08;;;;;;;1.17;1.10;;;;;;;-143.85;100.00;70650.75;5092411;28;20060;-77
2021/12/16 12:21:56;;;;;;;0.30;0.30;;;;;;;-143.85;100.00;70650.75;5091992;28;20032;-76
2021/12/16 12:24:32;;;;;;;1.63;1.52;;;;;;;-143.85;100.00;70650.75;5092115;28;20085;-76
2021/12/16 12:26:59;;;;;;;0.85;0.40;;;;;;;-143.85;100.00;70650.75;5092112;28;20066;-80
2021/12/16 12:29:33;;;;;;;1.35;0.77;;;;;;;-143.85;100.00;70650.75;5092285;28;20036;-79
2021/12/16 12:32:06;;;;;;;0.65;0.65;;;;;;;-143.85;100.00;70650.75;5091987;28;20028;-81
2021/12/16 12:34:33;;;;;;;0.35;0.35;;;;;;;-143.85;100.00;70650.75;5092476;28;20415;-81
2021/12/16 12:37:03;;;;;;;0.73;0.73;;;;;;;-143.85;100.00;70650.75;5091821;28;20024;-79
2021/12/16 12:39:38;;;;;;;0.40;0.40;;;;;;;-143.85;100.00;70650.75;5091795;28;20762;-82
2021/12/16 12:42:06;;;;;;;0.93;0.93;;;;;;;-143.85;100.00;70650.75;5096146;28;20032;-83
2021/12/16 12:44:33;;;;;;;0.20;0.20;;;;;;;-143.85;100.00;70650.75;5115142;28;20035;-82
2021/12/16 12:47:02;;;;;;;0.40;0.40;;;;;;;-143.85;100.00;70650.75;5115334;28;20379;-80
2021/12/16 12:49:30;;;;;;;1.42;1.40;;;;;;;-143.85;100.00;70650.75;5115071;28;20031;-82
2021/12/16 12:52:10;;;;;;;0.53;0.53;;;;;;;-143.85;100.00;70650.75;5115629;28;20031;-79
2021/12/16 12:54:38;;;;;;;0.30;0.30;;;;;;;-143.85;100.00;70650.75;5134017;28;20023;-82
2021/12/16 12:57:19;;;;;;;;;;;;;;;-143.85;100.00;70650.75;5116153;28;20031;-83
2021/12/16 12:59:45;;;;;;;0.20;0.20;;;;;;;-143.85;100.00;70650.75;5115057;28;20014;-85
2021/12/16 13:02:33;;;;;;;0.47;0.47;;;;;;;-143.85;100.00;70650.75;5115179;28;20070;-84
2021/12/16 13:05:01;;;;;;;;;;;;;;;-143.85;100.00;70650.75;5115560;28;20122;-80
2021/12/16 13:07:46;;;;;;;0.30;0.30;;;;;;;-143.85;100.00;70650.75;5114994;28;19915;-83
2021/12/16 13:10:18;;;;;;;0.28;0.28;;;;;;;-143.85;100.00;70650.75;5133671;28;20026;-84
2021/12/16 13:12:59;;;;;;;0.47;0.47;;;;;;;-143.85;100.00;70650.75;5116690;27;20107;-82
2021/12/16 13:15:49;;;;;;;1.40;1.30;;;;;;;-143.85;100.00;70650.75;5114455;28;20055;-76
2021/12/16 13:26:41;;;;;;;0.32;0.32;;;;;;;-143.85;100.00;70650.75;5095485;28;20089;-78
2021/12/16 13:30:06;;;;;;;0.35;0.35;;;;;;;-143.85;100.00;70650.75;5094455;28;20119;-77
2021/12/16 13:32:40;;;;;;;0.90;0.90;;;;;;;-143.85;100.00;70650.75;5093975;28;20032;-84
2021/12/16 13:37:47;;;;;;;0.50;0.50;;;;;;;-143.85;100.00;70650.75;5093867;28;20090;-81
2021/12/16 13:40:22;;;;;;;2.35;1.23;;;;;;;-143.85;100.00;70650.75;5076343;28;20028;-76
2021/12/16 13:42:57;;;;;;;0.45;0.45;;;;;;;-143.85;100.00;70650.75;5093130;28;20048;-73
2021/12/16 13:45:41;;;;;;;0.50;0.50;;;;;;;-143.85;100.00;70650.75;5095022;28;20043;-83
2021/12/16 14:05:40;;;;;;;0.20;0.20;;;;;;;-143.85;100.00;70650.75;5136088;27;20122;-78
2021/12/16 14:08:09;;;;;;;0.30;0.30;;;;;;;-143.85;100.00;70650.75;5117668;27;20062;-80
2021/12/16 14:14:11;;;;;;;0.43;0.43;;;;;;;-143.85;100.00;70650.75;5136356;27;20031;-78
2021/12/16 14:37:05;;;;;;;0.68;0.68;;;;;;;-143.85;100.00;70650.75;5115009;28;20039;-83
2021/12/16 14:50:04;;;;;;;0.70;0.70;;;;;;;-143.85;100.00;70650.75;5072968;28;20039;-84
2021/12/16 14:52:32;;;;;;;2.75;2.55;;;;;;;-143.85;100.00;70650.75;5096535;28;20039;-83
2021/12/16 14:55:01;;;;;;;1.85;1.75;;;;;;;-143.85;100.00;70650.75;5096499;28;20036;-84